sensor_id;sensor_type;location;lat;lon;timestamp;pressure;altitude;pressure_sealevel;temperature
64960;BMP180;51487;52.266;10.542;2022-09-03T00:02:38;100732.00;;;14.70
64960;BMP180;51487;52.266;10.542;2022-09-03T00:11:04;100726.00;;;14.70
64960;BMP180;51487;52.266;10.542;2022-09-03T00:13:58;100727.00;;;14.70
64960;BMP180;51487;52.266;10.542;2022-09-03T00:20:12;100728.00;;;14.60
64960;BMP180;51487;52.266;10.542;2022-09-03T00:22:49;100723.00;;;14.50
64960;BMP180;51487;52.266;10.542;2022-09-03T00:25:23;100717.00;;;14.50
64960;BMP180;51487;52.266;10.542;2022-09-03T00:28:01;100719.00;;;14.50
64960;BMP180;51487;52.266;10.542;2022-09-03T00:30:31;100718.00;;;14.50
64960;BMP180;51487;52.266;10.542;2022-09-03T00:33:02;100715.00;;;14.40
64960;BMP180;51487;52.266;10.542;2022-09-03T00:38:19;100717.00;;;14.40
64960;BMP180;51487;52.266;10.542;2022-09-03T00:40:59;100719.00;;;14.40
64960;BMP180;51487;52.266;10.542;2022-09-03T00:54:52;100708.00;;;14.10
64960;BMP180;51487;52.266;10.542;2022-09-03T01:00:51;100708.00;;;14.20
64960;BMP180;51487;52.266;10.542;2022-09-03T01:03:40;100715.00;;;14.10
64960;BMP180;51487;52.266;10.542;2022-09-03T01:06:33;100705.00;;;14.10
64960;BMP180;51487;52.266;10.542;2022-09-03T01:12:36;100708.00;;;14.10
64960;BMP180;51487;52.266;10.542;2022-09-03T01:15:29;100714.00;;;14.10
64960;BMP180;51487;52.266;10.542;2022-09-03T01:30:11;100712.00;;;14.00
64960;BMP180;51487;52.266;10.542;2022-09-03T01:33:08;100705.00;;;14.00
64960;BMP180;51487;52.266;10.542;2022-09-03T01:36:19;100710.00;;;14.10
64960;BMP180;51487;52.266;10.542;2022-09-03T01:38:52;100718.00;;;14.00
64960;BMP180;51487;52.266;10.542;2022-09-03T01:41:45;100714.00;;;13.90
64960;BMP180;51487;52.266;10.542;2022-09-03T01:53:24;100717.00;;;13.80
64960;BMP180;51487;52.266;10.542;2022-09-03T02:01:44;100721.00;;;13.80
64960;BMP180;51487;52.266;10.542;2022-09-03T02:04:17;100710.00;;;13.80
64960;BMP180;51487;52.266;10.542;2022-09-03T02:06:50;100709.00;;;13.70
64960;BMP180;51487;52.266;10.542;2022-09-03T02:09:17;100713.00;;;13.80
64960;BMP180;51487;52.266;10.542;2022-09-03T02:11:47;100711.00;;;13.80
64960;BMP180;51487;52.266;10.542;2022-09-03T02:14:17;100715.00;;;13.70
64960;BMP180;51487;52.266;10.542;2022-09-03T02:16:43;100711.00;;;13.80
64960;BMP180;51487;52.266;10.542;2022-09-03T02:19:13;100716.00;;;13.70
64960;BMP180;51487;52.266;10.542;2022-09-03T02:21:49;100712.00;;;13.70
64960;BMP180;51487;52.266;10.542;2022-09-03T02:24:17;100711.00;;;13.70
64960;BMP180;51487;52.266;10.542;2022-09-03T02:26:42;100704.00;;;13.70
64960;BMP180;51487;52.266;10.542;2022-09-03T02:29:09;100708.00;;;13.70
64960;BMP180;51487;52.266;10.542;2022-09-03T02:31:35;100708.00;;;13.60
64960;BMP180;51487;52.266;10.542;2022-09-03T02:34:01;100706.00;;;13.60
64960;BMP180;51487;52.266;10.542;2022-09-03T02:36:35;100703.00;;;13.70
64960;BMP180;51487;52.266;10.542;2022-09-03T02:39:04;100706.00;;;13.70
64960;BMP180;51487;52.266;10.542;2022-09-03T02:41:31;100704.00;;;13.70
64960;BMP180;51487;52.266;10.542;2022-09-03T02:44:19;100704.00;;;13.70
64960;BMP180;51487;52.266;10.542;2022-09-03T02:47:08;100700.00;;;13.70
64960;BMP180;51487;52.266;10.542;2022-09-03T02:49:34;100692.00;;;13.70
64960;BMP180;51487;52.266;10.542;2022-09-03T02:52:06;100704.00;;;13.70
64960;BMP180;51487;52.266;10.542;2022-09-03T02:54:35;100704.00;;;13.60
64960;BMP180;51487;52.266;10.542;2022-09-03T02:57:05;100709.00;;;13.60
64960;BMP180;51487;52.266;10.542;2022-09-03T02:59:31;100714.00;;;13.60
64960;BMP180;51487;52.266;10.542;2022-09-03T03:01:57;100712.00;;;13.60
64960;BMP180;51487;52.266;10.542;2022-09-03T03:04:23;100710.00;;;13.50
64960;BMP180;51487;52.266;10.542;2022-09-03T03:06:49;100711.00;;;13.50
64960;BMP180;51487;52.266;10.542;2022-09-03T03:09:15;100712.00;;;13.40
64960;BMP180;51487;52.266;10.542;2022-09-03T03:11:42;100708.00;;;13.40
64960;BMP180;51487;52.266;10.542;2022-09-03T03:14:07;100711.00;;;13.40
64960;BMP180;51487;52.266;10.542;2022-09-03T03:16:33;100704.00;;;13.30
64960;BMP180;51487;52.266;10.542;2022-09-03T03:18:59;100697.00;;;13.30
64960;BMP180;51487;52.266;10.542;2022-09-03T03:21:24;100702.00;;;13.30
64960;BMP180;51487;52.266;10.542;2022-09-03T03:23:50;100697.00;;;13.30
64960;BMP180;51487;52.266;10.542;2022-09-03T03:26:17;100693.00;;;13.20
64960;BMP180;51487;52.266;10.542;2022-09-03T03:28:47;100697.00;;;13.20
64960;BMP180;51487;52.266;10.542;2022-09-03T03:31:16;100696.00;;;13.30
64960;BMP180;51487;52.266;10.542;2022-09-03T03:33:48;100697.00;;;13.20
64960;BMP180;51487;52.266;10.542;2022-09-03T03:36:16;100693.00;;;13.10
64960;BMP180;51487;52.266;10.542;2022-09-03T03:38:43;100697.00;;;13.10
64960;BMP180;51487;52.266;10.542;2022-09-03T03:41:21;100696.00;;;13.10
64960;BMP180;51487;52.266;10.542;2022-09-03T03:43:55;100698.00;;;13.10
64960;BMP180;51487;52.266;10.542;2022-09-03T03:46:23;100697.00;;;13.10
64960;BMP180;51487;52.266;10.542;2022-09-03T03:48:52;100701.00;;;13.00
64960;BMP180;51487;52.266;10.542;2022-09-03T03:51:18;100703.00;;;12.90
64960;BMP180;51487;52.266;10.542;2022-09-03T03:53:44;100708.00;;;12.80
64960;BMP180;51487;52.266;10.542;2022-09-03T03:56:11;100699.00;;;12.70
64960;BMP180;51487;52.266;10.542;2022-09-03T03:58:39;100703.00;;;12.70
64960;BMP180;51487;52.266;10.542;2022-09-03T04:01:15;100712.00;;;12.70
64960;BMP180;51487;52.266;10.542;2022-09-03T04:03:43;100708.00;;;12.60
64960;BMP180;51487;52.266;10.542;2022-09-03T04:06:11;100700.00;;;12.70
64960;BMP180;51487;52.266;10.542;2022-09-03T04:08:39;100700.00;;;12.70
64960;BMP180;51487;52.266;10.542;2022-09-03T04:11:09;100691.00;;;12.60
64960;BMP180;51487;52.266;10.542;2022-09-03T04:13:40;100687.00;;;12.60
64960;BMP180;51487;52.266;10.542;2022-09-03T04:16:13;100683.00;;;12.50
64960;BMP180;51487;52.266;10.542;2022-09-03T04:18:43;100689.00;;;12.50
64960;BMP180;51487;52.266;10.542;2022-09-03T04:21:25;100686.00;;;12.40
64960;BMP180;51487;52.266;10.542;2022-09-03T04:23:53;100684.00;;;12.40
64960;BMP180;51487;52.266;10.542;2022-09-03T04:26:22;100684.00;;;12.30
64960;BMP180;51487;52.266;10.542;2022-09-03T04:28:49;100680.00;;;12.30
64960;BMP180;51487;52.266;10.542;2022-09-03T04:31:18;100681.00;;;12.30
64960;BMP180;51487;52.266;10.542;2022-09-03T04:33:45;100678.00;;;12.30
64960;BMP180;51487;52.266;10.542;2022-09-03T04:36:15;100680.00;;;12.30
64960;BMP180;51487;52.266;10.542;2022-09-03T04:38:42;100681.00;;;12.30
64960;BMP180;51487;52.266;10.542;2022-09-03T04:41:12;100683.00;;;12.30
64960;BMP180;51487;52.266;10.542;2022-09-03T04:43:39;100683.00;;;12.30
64960;BMP180;51487;52.266;10.542;2022-09-03T04:46:10;100685.00;;;12.30
64960;BMP180;51487;52.266;10.542;2022-09-03T04:48:37;100687.00;;;12.20
64960;BMP180;51487;52.266;10.542;2022-09-03T04:51:14;100684.00;;;12.20
64960;BMP180;51487;52.266;10.542;2022-09-03T04:53:43;100696.00;;;12.30
64960;BMP180;51487;52.266;10.542;2022-09-03T04:56:16;100689.00;;;12.20
64960;BMP180;51487;52.266;10.542;2022-09-03T04:58:44;100696.00;;;12.30
64960;BMP180;51487;52.266;10.542;2022-09-03T05:01:31;100685.00;;;12.30
64960;BMP180;51487;52.266;10.542;2022-09-03T05:03:59;100684.00;;;12.20
64960;BMP180;51487;52.266;10.542;2022-09-03T05:06:26;100685.00;;;12.30
64960;BMP180;51487;52.266;10.542;2022-09-03T05:08:53;100686.00;;;12.40
64960;BMP180;51487;52.266;10.542;2022-09-03T05:11:21;100678.00;;;12.50
64960;BMP180;51487;52.266;10.542;2022-09-03T05:13:49;100683.00;;;12.50
64960;BMP180;51487;52.266;10.542;2022-09-03T05:16:16;100684.00;;;12.50
64960;BMP180;51487;52.266;10.542;2022-09-03T05:18:43;100686.00;;;12.60
64960;BMP180;51487;52.266;10.542;2022-09-03T05:21:11;100682.00;;;12.60
64960;BMP180;51487;52.266;10.542;2022-09-03T05:23:43;100684.00;;;12.70
64960;BMP180;51487;52.266;10.542;2022-09-03T05:26:18;100687.00;;;12.60
64960;BMP180;51487;52.266;10.542;2022-09-03T05:28:46;100685.00;;;12.60
64960;BMP180;51487;52.266;10.542;2022-09-03T05:31:15;100672.00;;;12.60
64960;BMP180;51487;52.266;10.542;2022-09-03T05:33:44;100679.00;;;12.70
64960;BMP180;51487;52.266;10.542;2022-09-03T05:36:15;100682.00;;;12.70
64960;BMP180;51487;52.266;10.542;2022-09-03T05:38:44;100677.00;;;12.70
64960;BMP180;51487;52.266;10.542;2022-09-03T05:41:12;100680.00;;;12.80
64960;BMP180;51487;52.266;10.542;2022-09-03T05:43:40;100680.00;;;12.90
64960;BMP180;51487;52.266;10.542;2022-09-03T05:46:08;100693.00;;;13.00
64960;BMP180;51487;52.266;10.542;2022-09-03T05:48:39;100683.00;;;13.10
64960;BMP180;51487;52.266;10.542;2022-09-03T05:51:13;100684.00;;;13.20
64960;BMP180;51487;52.266;10.542;2022-09-03T05:53:41;100692.00;;;13.30
64960;BMP180;51487;52.266;10.542;2022-09-03T05:56:10;100690.00;;;13.40
64960;BMP180;51487;52.266;10.542;2022-09-03T05:58:52;100697.00;;;13.50
64960;BMP180;51487;52.266;10.542;2022-09-03T06:03:53;100698.00;;;13.60
64960;BMP180;51487;52.266;10.542;2022-09-03T06:06:24;100699.00;;;13.60
64960;BMP180;51487;52.266;10.542;2022-09-03T06:08:55;100694.00;;;13.70
64960;BMP180;51487;52.266;10.542;2022-09-03T06:11:24;100694.00;;;13.80
64960;BMP180;51487;52.266;10.542;2022-09-03T06:13:58;100694.00;;;13.90
64960;BMP180;51487;52.266;10.542;2022-09-03T06:16:26;100691.00;;;14.00
64960;BMP180;51487;52.266;10.542;2022-09-03T06:18:53;100703.00;;;14.10
64960;BMP180;51487;52.266;10.542;2022-09-03T06:21:20;100702.00;;;14.10
64960;BMP180;51487;52.266;10.542;2022-09-03T06:23:51;100698.00;;;14.20
64960;BMP180;51487;52.266;10.542;2022-09-03T06:26:18;100710.00;;;14.30
64960;BMP180;51487;52.266;10.542;2022-09-03T06:28:45;100702.00;;;14.30
64960;BMP180;51487;52.266;10.542;2022-09-03T06:31:14;100703.00;;;14.40
64960;BMP180;51487;52.266;10.542;2022-09-03T06:33:42;100700.00;;;14.40
64960;BMP180;51487;52.266;10.542;2022-09-03T06:36:10;100697.00;;;14.40
64960;BMP180;51487;52.266;10.542;2022-09-03T06:38:38;100697.00;;;14.50
64960;BMP180;51487;52.266;10.542;2022-09-03T06:41:09;100695.00;;;14.50
64960;BMP180;51487;52.266;10.542;2022-09-03T06:43:48;100700.00;;;14.60
64960;BMP180;51487;52.266;10.542;2022-09-03T06:46:16;100696.00;;;14.60
64960;BMP180;51487;52.266;10.542;2022-09-03T06:48:44;100705.00;;;14.70
64960;BMP180;51487;52.266;10.542;2022-09-03T06:51:13;100701.00;;;14.70
64960;BMP180;51487;52.266;10.542;2022-09-03T06:53:42;100697.00;;;14.80
64960;BMP180;51487;52.266;10.542;2022-09-03T06:56:12;100700.00;;;14.90
64960;BMP180;51487;52.266;10.542;2022-09-03T06:58:44;100702.00;;;15.00
64960;BMP180;51487;52.266;10.542;2022-09-03T07:01:14;100701.00;;;15.10
64960;BMP180;51487;52.266;10.542;2022-09-03T07:03:42;100709.00;;;15.20
64960;BMP180;51487;52.266;10.542;2022-09-03T07:06:14;100708.00;;;15.20
64960;BMP180;51487;52.266;10.542;2022-09-03T07:08:42;100709.00;;;15.20
64960;BMP180;51487;52.266;10.542;2022-09-03T07:11:17;100704.00;;;15.20
64960;BMP180;51487;52.266;10.542;2022-09-03T07:13:48;100703.00;;;15.40
64960;BMP180;51487;52.266;10.542;2022-09-03T07:16:18;100705.00;;;15.40
64960;BMP180;51487;52.266;10.542;2022-09-03T07:18:47;100702.00;;;15.50
64960;BMP180;51487;52.266;10.542;2022-09-03T07:21:22;100694.00;;;15.60
64960;BMP180;51487;52.266;10.542;2022-09-03T07:23:53;100697.00;;;15.70
64960;BMP180;51487;52.266;10.542;2022-09-03T07:26:22;100700.00;;;15.80
64960;BMP180;51487;52.266;10.542;2022-09-03T07:28:53;100690.00;;;15.90
64960;BMP180;51487;52.266;10.542;2022-09-03T07:31:25;100696.00;;;16.00
64960;BMP180;51487;52.266;10.542;2022-09-03T07:36:22;100690.00;;;16.10
64960;BMP180;51487;52.266;10.542;2022-09-03T07:38:50;100695.00;;;16.20
64960;BMP180;51487;52.266;10.542;2022-09-03T07:41:19;100692.00;;;16.20
64960;BMP180;51487;52.266;10.542;2022-09-03T07:43:46;100694.00;;;16.30
64960;BMP180;51487;52.266;10.542;2022-09-03T07:46:15;100689.00;;;16.40
64960;BMP180;51487;52.266;10.542;2022-09-03T07:48:51;100693.00;;;16.50
64960;BMP180;51487;52.266;10.542;2022-09-03T07:51:20;100683.00;;;16.50
64960;BMP180;51487;52.266;10.542;2022-09-03T07:53:52;100691.00;;;16.60
64960;BMP180;51487;52.266;10.542;2022-09-03T07:56:20;100687.00;;;16.70
64960;BMP180;51487;52.266;10.542;2022-09-03T07:58:46;100691.00;;;16.80
64960;BMP180;51487;52.266;10.542;2022-09-03T08:01:14;100684.00;;;16.80
64960;BMP180;51487;52.266;10.542;2022-09-03T08:03:46;100694.00;;;16.90
64960;BMP180;51487;52.266;10.542;2022-09-03T08:06:19;100691.00;;;16.90
64960;BMP180;51487;52.266;10.542;2022-09-03T08:08:54;100699.00;;;17.00
64960;BMP180;51487;52.266;10.542;2022-09-03T08:11:25;100698.00;;;17.00
64960;BMP180;51487;52.266;10.542;2022-09-03T08:13:56;100701.00;;;17.00
64960;BMP180;51487;52.266;10.542;2022-09-03T08:16:26;100697.00;;;17.00
64960;BMP180;51487;52.266;10.542;2022-09-03T08:18:57;100703.00;;;17.10
64960;BMP180;51487;52.266;10.542;2022-09-03T08:21:24;100689.00;;;17.10
64960;BMP180;51487;52.266;10.542;2022-09-03T08:23:52;100691.00;;;17.20
64960;BMP180;51487;52.266;10.542;2022-09-03T08:26:26;100698.00;;;17.30
64960;BMP180;51487;52.266;10.542;2022-09-03T08:28:54;100692.00;;;17.40
64960;BMP180;51487;52.266;10.542;2022-09-03T08:31:21;100696.00;;;17.50
64960;BMP180;51487;52.266;10.542;2022-09-03T08:33:53;100691.00;;;17.60
64960;BMP180;51487;52.266;10.542;2022-09-03T08:36:24;100690.00;;;17.70
64960;BMP180;51487;52.266;10.542;2022-09-03T08:38:58;100684.00;;;17.70
64960;BMP180;51487;52.266;10.542;2022-09-03T08:47:28;100697.00;;;18.20
64960;BMP180;51487;52.266;10.542;2022-09-03T08:52:37;100695.00;;;18.60
64960;BMP180;51487;52.266;10.542;2022-09-03T08:58:11;100700.00;;;18.80
64960;BMP180;51487;52.266;10.542;2022-09-03T09:00:49;100687.00;;;18.80
64960;BMP180;51487;52.266;10.542;2022-09-03T09:12:19;100688.00;;;19.00
64960;BMP180;51487;52.266;10.542;2022-09-03T09:15:19;100688.00;;;19.10
64960;BMP180;51487;52.266;10.542;2022-09-03T09:18:04;100690.00;;;19.10
64960;BMP180;51487;52.266;10.542;2022-09-03T09:20:58;100698.00;;;19.10
64960;BMP180;51487;52.266;10.542;2022-09-03T09:23:46;100692.00;;;19.10
64960;BMP180;51487;52.266;10.542;2022-09-03T09:26:15;100683.00;;;19.20
64960;BMP180;51487;52.266;10.542;2022-09-03T09:28:45;100681.00;;;19.30
64960;BMP180;51487;52.266;10.542;2022-09-03T09:31:16;100690.00;;;19.30
64960;BMP180;51487;52.266;10.542;2022-09-03T09:33:43;100675.00;;;19.40
64960;BMP180;51487;52.266;10.542;2022-09-03T09:36:12;100675.00;;;19.40
64960;BMP180;51487;52.266;10.542;2022-09-03T09:38:41;100683.00;;;19.40
64960;BMP180;51487;52.266;10.542;2022-09-03T09:41:20;100679.00;;;19.50
64960;BMP180;51487;52.266;10.542;2022-09-03T09:43:59;100676.00;;;19.60
64960;BMP180;51487;52.266;10.542;2022-09-03T09:46:36;100674.00;;;19.60
64960;BMP180;51487;52.266;10.542;2022-09-03T09:49:32;100667.00;;;19.60
64960;BMP180;51487;52.266;10.542;2022-09-03T09:52:09;100684.00;;;19.70
64960;BMP180;51487;52.266;10.542;2022-09-03T09:54:37;100674.00;;;19.70
64960;BMP180;51487;52.266;10.542;2022-09-03T09:57:06;100676.00;;;19.70
64960;BMP180;51487;52.266;10.542;2022-09-03T09:59:38;100676.00;;;19.70
64960;BMP180;51487;52.266;10.542;2022-09-03T10:02:14;100679.00;;;19.80
64960;BMP180;51487;52.266;10.542;2022-09-03T10:04:40;100681.00;;;19.90
64960;BMP180;51487;52.266;10.542;2022-09-03T10:07:30;100676.00;;;19.90
64960;BMP180;51487;52.266;10.542;2022-09-03T10:12:45;100667.00;;;19.90
64960;BMP180;51487;52.266;10.542;2022-09-03T10:15:58;100661.00;;;20.00
64960;BMP180;51487;52.266;10.542;2022-09-03T10:18:41;100661.00;;;20.00
64960;BMP180;51487;52.266;10.542;2022-09-03T10:21:31;100672.00;;;20.00
64960;BMP180;51487;52.266;10.542;2022-09-03T10:26:52;100668.00;;;20.00
64960;BMP180;51487;52.266;10.542;2022-09-03T10:29:20;100676.00;;;20.00
64960;BMP180;51487;52.266;10.542;2022-09-03T10:35:28;100660.00;;;20.10
64960;BMP180;51487;52.266;10.542;2022-09-03T10:38:18;100663.00;;;20.10
64960;BMP180;51487;52.266;10.542;2022-09-03T10:46:57;100647.00;;;20.20
64960;BMP180;51487;52.266;10.542;2022-09-03T10:49:37;100649.00;;;20.20
64960;BMP180;51487;52.266;10.542;2022-09-03T10:52:31;100650.00;;;20.20
64960;BMP180;51487;52.266;10.542;2022-09-03T11:01:02;100644.00;;;20.40
64960;BMP180;51487;52.266;10.542;2022-09-03T11:03:44;100636.00;;;20.40
64960;BMP180;51487;52.266;10.542;2022-09-03T11:11:46;100632.00;;;20.50
64960;BMP180;51487;52.266;10.542;2022-09-03T11:14:24;100636.00;;;20.50
64960;BMP180;51487;52.266;10.542;2022-09-03T11:17:06;100634.00;;;20.60
64960;BMP180;51487;52.266;10.542;2022-09-03T11:19:48;100629.00;;;20.50
64960;BMP180;51487;52.266;10.542;2022-09-03T11:22:33;100629.00;;;20.60
64960;BMP180;51487;52.266;10.542;2022-09-03T11:25:01;100628.00;;;20.60
64960;BMP180;51487;52.266;10.542;2022-09-03T11:30:23;100631.00;;;20.70
64960;BMP180;51487;52.266;10.542;2022-09-03T11:32:59;100625.00;;;20.80
64960;BMP180;51487;52.266;10.542;2022-09-03T11:37:59;100617.00;;;20.90
64960;BMP180;51487;52.266;10.542;2022-09-03T11:40:31;100620.00;;;20.90
64960;BMP180;51487;52.266;10.542;2022-09-03T11:43:25;100624.00;;;20.90
64960;BMP180;51487;52.266;10.542;2022-09-03T11:46:26;100629.00;;;21.00
64960;BMP180;51487;52.266;10.542;2022-09-03T11:49:22;100620.00;;;21.00
64960;BMP180;51487;52.266;10.542;2022-09-03T11:52:00;100624.00;;;21.10
64960;BMP180;51487;52.266;10.542;2022-09-03T11:54:31;100619.00;;;21.10
64960;BMP180;51487;52.266;10.542;2022-09-03T11:59:40;100621.00;;;21.30
64960;BMP180;51487;52.266;10.542;2022-09-03T12:05:13;100612.00;;;21.40
64960;BMP180;51487;52.266;10.542;2022-09-03T12:07:56;100614.00;;;21.50
64960;BMP180;51487;52.266;10.542;2022-09-03T12:10:38;100611.00;;;21.50
64960;BMP180;51487;52.266;10.542;2022-09-03T12:13:35;100609.00;;;21.40
64960;BMP180;51487;52.266;10.542;2022-09-03T12:22:17;100605.00;;;21.40
64960;BMP180;51487;52.266;10.542;2022-09-03T12:24:44;100605.00;;;21.40
64960;BMP180;51487;52.266;10.542;2022-09-03T12:27:21;100611.00;;;21.40
64960;BMP180;51487;52.266;10.542;2022-09-03T12:29:59;100600.00;;;21.40
64960;BMP180;51487;52.266;10.542;2022-09-03T12:32:32;100593.00;;;21.40
64960;BMP180;51487;52.266;10.542;2022-09-03T12:35:15;100595.00;;;21.40
64960;BMP180;51487;52.266;10.542;2022-09-03T12:37:43;100589.00;;;21.40
64960;BMP180;51487;52.266;10.542;2022-09-03T12:42:47;100589.00;;;21.40
64960;BMP180;51487;52.266;10.542;2022-09-03T12:45:14;100588.00;;;21.50
64960;BMP180;51487;52.266;10.542;2022-09-03T12:47:46;100588.00;;;21.60
64960;BMP180;51487;52.266;10.542;2022-09-03T12:50:13;100582.00;;;21.60
64960;BMP180;51487;52.266;10.542;2022-09-03T12:52:58;100578.00;;;21.50
64960;BMP180;51487;52.266;10.542;2022-09-03T12:58:17;100574.00;;;21.60
64960;BMP180;51487;52.266;10.542;2022-09-03T13:00:58;100579.00;;;21.60
64960;BMP180;51487;52.266;10.542;2022-09-03T13:03:54;100578.00;;;21.60
64960;BMP180;51487;52.266;10.542;2022-09-03T13:07:02;100576.00;;;21.70
64960;BMP180;51487;52.266;10.542;2022-09-03T13:09:35;100572.00;;;21.70
64960;BMP180;51487;52.266;10.542;2022-09-03T13:12:03;100554.00;;;21.60
64960;BMP180;51487;52.266;10.542;2022-09-03T13:14:41;100559.00;;;21.70
64960;BMP180;51487;52.266;10.542;2022-09-03T13:17:34;100550.00;;;21.80
64960;BMP180;51487;52.266;10.542;2022-09-03T13:21:09;100560.00;;;21.80
64960;BMP180;51487;52.266;10.542;2022-09-03T13:24:13;100560.00;;;21.80
64960;BMP180;51487;52.266;10.542;2022-09-03T13:35:26;100546.00;;;21.80
64960;BMP180;51487;52.266;10.542;2022-09-03T13:38:20;100562.00;;;21.70
64960;BMP180;51487;52.266;10.542;2022-09-03T13:41:17;100552.00;;;21.80
64960;BMP180;51487;52.266;10.542;2022-09-03T13:43:56;100563.00;;;21.80
64960;BMP180;51487;52.266;10.542;2022-09-03T14:03:32;100555.00;;;21.90
64960;BMP180;51487;52.266;10.542;2022-09-03T14:09:29;100551.00;;;21.90
64960;BMP180;51487;52.266;10.542;2022-09-03T14:15:25;100551.00;;;22.10
64960;BMP180;51487;52.266;10.542;2022-09-03T14:18:09;100548.00;;;22.10
64960;BMP180;51487;52.266;10.542;2022-09-03T14:20:48;100541.00;;;22.20
64960;BMP180;51487;52.266;10.542;2022-09-03T14:23:33;100544.00;;;22.10
64960;BMP180;51487;52.266;10.542;2022-09-03T14:26:15;100547.00;;;22.10
64960;BMP180;51487;52.266;10.542;2022-09-03T14:28:48;100546.00;;;22.10
64960;BMP180;51487;52.266;10.542;2022-09-03T14:36:57;100545.00;;;22.00
64960;BMP180;51487;52.266;10.542;2022-09-03T14:48:36;100539.00;;;22.00
64960;BMP180;51487;52.266;10.542;2022-09-03T14:51:22;100540.00;;;22.10
64960;BMP180;51487;52.266;10.542;2022-09-03T14:54:12;100541.00;;;22.20
64960;BMP180;51487;52.266;10.542;2022-09-03T15:19:59;100552.00;;;22.30
64960;BMP180;51487;52.266;10.542;2022-09-03T15:26:22;100551.00;;;22.30
64960;BMP180;51487;52.266;10.542;2022-09-03T15:34:44;100542.00;;;22.50
64960;BMP180;51487;52.266;10.542;2022-09-03T15:37:46;100543.00;;;22.60
64960;BMP180;51487;52.266;10.542;2022-09-03T15:40:26;100549.00;;;22.70
64960;BMP180;51487;52.266;10.542;2022-09-03T15:43:02;100547.00;;;22.60
64960;BMP180;51487;52.266;10.542;2022-09-03T15:51:21;100551.00;;;22.60
64960;BMP180;51487;52.266;10.542;2022-09-03T15:53:56;100552.00;;;22.50
64960;BMP180;51487;52.266;10.542;2022-09-03T15:56:36;100544.00;;;22.40
64960;BMP180;51487;52.266;10.542;2022-09-03T16:00:00;100552.00;;;22.50
64960;BMP180;51487;52.266;10.542;2022-09-03T16:02:32;100543.00;;;22.50
64960;BMP180;51487;52.266;10.542;2022-09-03T16:05:22;100542.00;;;22.40
64960;BMP180;51487;52.266;10.542;2022-09-03T16:13:35;100545.00;;;22.40
64960;BMP180;51487;52.266;10.542;2022-09-03T16:16:12;100544.00;;;22.20
64960;BMP180;51487;52.266;10.542;2022-09-03T16:19:16;100539.00;;;22.00
64960;BMP180;51487;52.266;10.542;2022-09-03T16:22:11;100543.00;;;21.90
64960;BMP180;51487;52.266;10.542;2022-09-03T16:25:00;100545.00;;;21.80
64960;BMP180;51487;52.266;10.542;2022-09-03T16:37:31;100551.00;;;21.40
64960;BMP180;51487;52.266;10.542;2022-09-03T16:40:37;100549.00;;;21.30
64960;BMP180;51487;52.266;10.542;2022-09-03T16:43:43;100548.00;;;21.30
64960;BMP180;51487;52.266;10.542;2022-09-03T16:49:16;100557.00;;;21.20
64960;BMP180;51487;52.266;10.542;2022-09-03T16:52:13;100561.00;;;21.10
64960;BMP180;51487;52.266;10.542;2022-09-03T16:55:02;100559.00;;;21.00
64960;BMP180;51487;52.266;10.542;2022-09-03T16:58:00;100561.00;;;20.90
64960;BMP180;51487;52.266;10.542;2022-09-03T17:04:02;100556.00;;;20.80
64960;BMP180;51487;52.266;10.542;2022-09-03T17:08:02;100562.00;;;20.70
64960;BMP180;51487;52.266;10.542;2022-09-03T17:13:20;100571.00;;;20.50
64960;BMP180;51487;52.266;10.542;2022-09-03T17:27:29;100565.00;;;20.20
64960;BMP180;51487;52.266;10.542;2022-09-03T17:34:18;100567.00;;;20.30
64960;BMP180;51487;52.266;10.542;2022-09-03T17:43:20;100579.00;;;19.90
64960;BMP180;51487;52.266;10.542;2022-09-03T17:49:01;100580.00;;;19.70
64960;BMP180;51487;52.266;10.542;2022-09-03T17:51:49;100583.00;;;19.60
64960;BMP180;51487;52.266;10.542;2022-09-03T17:57:21;100593.00;;;19.40
64960;BMP180;51487;52.266;10.542;2022-09-03T18:00:00;100596.00;;;19.40
64960;BMP180;51487;52.266;10.542;2022-09-03T18:02:53;100595.00;;;19.30
64960;BMP180;51487;52.266;10.542;2022-09-03T18:05:33;100606.00;;;19.40
64960;BMP180;51487;52.266;10.542;2022-09-03T18:10:43;100608.00;;;19.30
64960;BMP180;51487;52.266;10.542;2022-09-03T18:19:01;100618.00;;;19.00
64960;BMP180;51487;52.266;10.542;2022-09-03T18:21:42;100624.00;;;18.90
64960;BMP180;51487;52.266;10.542;2022-09-03T18:24:32;100621.00;;;19.00
64960;BMP180;51487;52.266;10.542;2022-09-03T18:27:35;100633.00;;;18.80
64960;BMP180;51487;52.266;10.542;2022-09-03T18:30:23;100627.00;;;18.70
64960;BMP180;51487;52.266;10.542;2022-09-03T18:33:08;100631.00;;;18.80
64960;BMP180;51487;52.266;10.542;2022-09-03T18:35:53;100632.00;;;18.80
64960;BMP180;51487;52.266;10.542;2022-09-03T18:38:39;100634.00;;;18.70
64960;BMP180;51487;52.266;10.542;2022-09-03T18:44:34;100639.00;;;18.50
64960;BMP180;51487;52.266;10.542;2022-09-03T18:50:52;100646.00;;;18.30
64960;BMP180;51487;52.266;10.542;2022-09-03T18:57:05;100643.00;;;18.20
64960;BMP180;51487;52.266;10.542;2022-09-03T19:03:01;100652.00;;;18.00
64960;BMP180;51487;52.266;10.542;2022-09-03T19:09:32;100649.00;;;18.00
64960;BMP180;51487;52.266;10.542;2022-09-03T19:15:46;100648.00;;;17.90
64960;BMP180;51487;52.266;10.542;2022-09-03T19:21:44;100652.00;;;17.80
64960;BMP180;51487;52.266;10.542;2022-09-03T19:24:33;100652.00;;;17.80
64960;BMP180;51487;52.266;10.542;2022-09-03T19:27:39;100649.00;;;17.80
64960;BMP180;51487;52.266;10.542;2022-09-03T19:41:12;100662.00;;;17.40
64960;BMP180;51487;52.266;10.542;2022-09-03T19:46:55;100662.00;;;17.40
64960;BMP180;51487;52.266;10.542;2022-09-03T19:53:00;100671.00;;;17.20
64960;BMP180;51487;52.266;10.542;2022-09-03T19:55:56;100668.00;;;17.10